createdAt,value
2022-08-03T00:00:48.551Z,25.82
2022-08-03T00:05:40.944Z,25.79
2022-08-03T00:10:33.739Z,25.79
2022-08-03T00:15:26.512Z,25.77
2022-08-03T00:20:19.052Z,25.74
2022-08-03T00:25:11.683Z,25.69
2022-08-03T00:30:04.300Z,25.67
2022-08-03T00:34:57.484Z,25.66
2022-08-03T00:39:49.561Z,25.6
2022-08-03T00:44:42.182Z,25.56
2022-08-03T00:49:34.636Z,25.53
2022-08-03T00:54:27.244Z,25.56
2022-08-03T00:59:19.946Z,25.52
2022-08-03T01:07:28.969Z,25.49
2022-08-03T01:12:42.891Z,25.48
2022-08-03T01:17:31.189Z,25.51
2022-08-03T01:22:23.469Z,25.44
2022-08-03T01:27:16.203Z,25.35
2022-08-03T01:33:02.358Z,25.33
2022-08-03T01:37:01.605Z,25.34
2022-08-03T01:41:54.057Z,25.33
2022-08-03T01:46:47.799Z,25.32
2022-08-03T01:51:56.220Z,25.21
2022-08-03T01:56:31.583Z,25.18
2022-08-03T02:01:24.204Z,25.26
2022-08-03T02:07:00.976Z,25.2
2022-08-03T02:11:09.729Z,25.26
2022-08-03T02:16:02.457Z,25.23
2022-08-03T02:20:55.226Z,25.16
2022-08-03T02:25:47.899Z,25.18
2022-08-03T02:30:40.278Z,25.03
2022-08-03T02:35:33.129Z,25.05
2022-08-03T02:40:28.927Z,25.1
2022-08-03T02:45:21.009Z,25.08
2022-08-03T02:50:21.707Z,25.03
2022-08-03T02:55:12.460Z,25.04
2022-08-03T03:00:04.955Z,24.98
2022-08-03T03:05:50.985Z,24.97
2022-08-03T03:09:50.033Z,24.87
2022-08-03T03:14:42.733Z,24.84
2022-08-03T03:19:35.393Z,24.88
2022-08-03T03:24:28.182Z,24.82
2022-08-03T03:33:14.654Z,24.77
2022-08-03T03:37:54.771Z,24.76
2022-08-03T03:42:47.369Z,24.71
2022-08-03T03:47:40.081Z,24.69
2022-08-03T03:57:20.430Z,24.66
2022-08-03T04:02:14.400Z,24.67
2022-08-03T04:07:06.836Z,24.64
2022-08-03T04:11:59.257Z,24.58
2022-08-03T04:17:00.612Z,24.32
2022-08-03T04:21:50.716Z,23.82
2022-08-03T04:26:43.187Z,23.42
2022-08-03T04:31:35.561Z,23.1
2022-08-03T04:36:27.832Z,22.98
2022-08-03T04:41:20.485Z,23.08
2022-08-03T04:46:12.673Z,22.85
2022-08-03T04:51:05.398Z,22.73
2022-08-03T04:55:58.047Z,22.91
2022-08-03T05:00:50.539Z,22.96
2022-08-03T05:05:50.453Z,22.94
2022-08-03T05:10:35.112Z,22.81
2022-08-03T05:15:27.684Z,22.65
2022-08-03T05:20:19.925Z,22.32
2022-08-03T05:25:17.427Z,22.58
2022-08-03T05:30:26.684Z,22.28
2022-08-03T05:34:57.626Z,22.62
2022-08-03T05:39:50.227Z,22.3
2022-08-03T05:44:41.738Z,21.7
2022-08-03T05:49:34.812Z,22.08
2022-08-03T05:54:55.714Z,22.71
2022-08-03T05:59:37.453Z,22.41
2022-08-03T06:04:13.117Z,21.86
2022-08-03T06:09:05.767Z,21.99
2022-08-03T06:13:58.874Z,22.51
2022-08-03T06:18:50.900Z,22.51
2022-08-03T06:23:52.731Z,22.28
2022-08-03T06:28:52.048Z,22.1
2022-08-03T06:33:33.679Z,22.18
2022-08-03T06:38:20.541Z,22.39
2022-08-03T06:43:13.117Z,22.3
2022-08-03T06:48:06.057Z,22.56
2022-08-03T06:52:58.445Z,22.47
2022-08-03T06:57:51.029Z,22.31
2022-08-03T07:02:44.221Z,22.57
2022-08-03T07:07:36.240Z,22.54
2022-08-03T07:12:28.719Z,22.63
2022-08-03T07:17:21.503Z,22.74
2022-08-03T07:22:13.892Z,22.81
2022-08-03T07:27:06.436Z,22.92
2022-08-03T07:31:59.259Z,22.98
2022-08-03T07:36:52.036Z,23.13
2022-08-03T07:41:44.705Z,23.22
2022-08-03T07:46:37.738Z,23.33
2022-08-03T07:51:30.495Z,23.37
2022-08-03T07:56:22.751Z,23.45
2022-08-03T08:01:15.661Z,23.5
2022-08-03T08:06:08.413Z,23.54
2022-08-03T08:11:01.134Z,23.6
2022-08-03T08:15:53.726Z,23.64
2022-08-03T08:20:49.526Z,23.69
2022-08-03T08:25:41.233Z,23.73
2022-08-03T08:30:33.736Z,23.77
2022-08-03T08:35:26.178Z,23.8
2022-08-03T08:40:18.776Z,23.84
2022-08-03T08:45:11.367Z,23.88
2022-08-03T08:50:09.541Z,23.92
2022-08-03T08:54:56.454Z,23.97
2022-08-03T09:04:41.617Z,24.05
2022-08-03T09:14:34.116Z,24.12
2022-08-03T09:19:19.640Z,24.16
2022-08-03T09:24:20.798Z,24.2
2022-08-03T09:29:09.510Z,24.24
2022-08-03T09:33:57.859Z,24.29
2022-08-03T09:38:50.348Z,24.33
2022-08-03T09:43:42.576Z,24.37
2022-08-03T09:53:27.636Z,24.46
2022-08-03T09:58:19.973Z,24.5
2022-08-03T10:03:12.594Z,24.54
2022-08-03T10:08:05.273Z,24.58
2022-08-03T10:12:57.756Z,24.62
2022-08-03T10:17:50.209Z,24.66
2022-08-03T10:22:42.519Z,24.71
2022-08-03T10:27:35.186Z,24.74
2022-08-03T10:32:27.933Z,24.78
2022-08-03T10:37:20.531Z,24.82
2022-08-03T10:42:14.515Z,24.86
2022-08-03T10:47:05.655Z,24.91
2022-08-03T10:51:58.304Z,24.93
2022-08-03T10:56:50.734Z,24.98
2022-08-03T11:01:58.395Z,25.03
2022-08-03T11:06:37.352Z,25.07
2022-08-03T11:11:28.687Z,25.11
2022-08-03T11:16:22.320Z,25.13
2022-08-03T11:21:13.895Z,25.17
2022-08-03T11:26:06.228Z,25.22
2022-08-03T11:30:58.942Z,25.24
2022-08-03T11:35:51.483Z,25.28
2022-08-03T11:40:44.126Z,25.32
2022-08-03T11:45:36.870Z,25.35
2022-08-03T11:50:29.330Z,25.38
2022-08-03T11:55:22.338Z,25.38
2022-08-03T12:00:14.817Z,25.44
2022-08-03T12:05:07.530Z,25.45
2022-08-03T12:09:59.846Z,25.5
2022-08-03T12:14:52.680Z,25.53
2022-08-03T12:19:44.981Z,25.56
2022-08-03T12:24:37.818Z,25.58
2022-08-03T12:29:30.150Z,25.6
2022-08-03T12:34:22.640Z,25.63
2022-08-03T12:39:15.355Z,25.64
2022-08-03T12:44:08.247Z,25.67
2022-08-03T12:49:00.632Z,25.71
2022-08-03T12:53:53.338Z,25.73
2022-08-03T12:58:46.114Z,25.76
2022-08-03T13:03:42.543Z,25.8
2022-08-03T13:08:31.447Z,25.8
2022-08-03T13:13:24.088Z,25.87
2022-08-03T13:18:17.415Z,25.88
2022-08-03T13:23:10.714Z,25.92
2022-08-03T13:28:05.872Z,25.95
2022-08-03T13:32:54.897Z,25.98
2022-08-03T13:37:47.784Z,26
2022-08-03T13:42:39.994Z,26.03
2022-08-03T13:47:32.651Z,26.06
2022-08-03T13:52:25.240Z,26.08
2022-08-03T14:02:05.648Z,26.11
2022-08-03T14:06:59.477Z,26.14
2022-08-03T14:12:04.246Z,26.18
2022-08-03T14:16:44.925Z,26.22
2022-08-03T14:21:37.526Z,26.2
2022-08-03T14:26:30.059Z,26.25
2022-08-03T14:32:10.721Z,26.28
2022-08-03T14:36:15.296Z,26.29
2022-08-03T14:41:12.136Z,26.34
2022-08-03T14:46:00.378Z,26.36
2022-08-03T14:50:53.234Z,26.38
2022-08-03T14:55:50.204Z,26.38
2022-08-03T15:00:37.980Z,26.42
2022-08-03T15:05:30.514Z,26.44
2022-08-03T15:10:27.130Z,26.47
2022-08-03T15:15:15.554Z,26.5
2022-08-03T15:20:24.346Z,26.52
2022-08-03T15:25:00.677Z,26.54
2022-08-03T15:30:06.468Z,26.57
2022-08-03T15:34:50.173Z,26.59
2022-08-03T15:39:58.525Z,26.62
2022-08-03T15:44:31.102Z,26.65
2022-08-03T15:49:23.597Z,26.68
2022-08-03T15:54:16.585Z,26.71
2022-08-03T15:59:13.133Z,26.73
2022-08-03T16:04:01.924Z,26.76
2022-08-03T16:08:54.596Z,26.79
2022-08-03T16:14:05.092Z,26.82
2022-08-03T16:18:39.721Z,26.84
2022-08-03T16:23:33.947Z,26.88
2022-08-03T16:28:25.211Z,26.88
2022-08-03T16:38:12.304Z,26.93
2022-08-03T16:43:02.562Z,26.96
2022-08-03T16:48:01.379Z,26.98
2022-08-03T16:52:48.392Z,26.98
2022-08-03T16:57:56.193Z,27
2022-08-03T17:02:32.975Z,27.01
2022-08-03T17:07:25.568Z,27.05
2022-08-03T17:12:18.536Z,27.07
2022-08-03T17:17:16.289Z,27.09
2022-08-03T17:22:03.938Z,27.11
2022-08-03T17:26:56.476Z,27.13
2022-08-03T17:31:49.815Z,27.13
2022-08-03T17:37:03.023Z,27.14
2022-08-03T17:41:34.683Z,27.16
2022-08-03T17:46:27.654Z,27.18
2022-08-03T17:51:20.313Z,27.19
2022-08-03T17:56:40.612Z,27.19
2022-08-03T18:01:57.022Z,27.2
2022-08-03T18:06:09.208Z,27.21
2022-08-03T18:10:51.033Z,27.21
2022-08-03T18:15:43.681Z,27.22
2022-08-03T18:20:41.416Z,27.23
2022-08-03T18:25:37.864Z,27.24
2022-08-03T18:30:21.750Z,27.24
2022-08-03T18:35:14.765Z,27.25
2022-08-03T18:40:07.593Z,27.26
2022-08-03T18:45:14.643Z,27.26
2022-08-03T18:49:52.898Z,27.28
2022-08-03T18:54:59.280Z,27.26
2022-08-03T18:59:38.132Z,27.28
2022-08-03T19:04:31.024Z,27.27
2022-08-03T19:09:24.071Z,27.29
2022-08-03T19:14:16.404Z,27.3
2022-08-03T19:19:08.847Z,27.3
2022-08-03T19:24:03.738Z,27.3
2022-08-03T19:28:54.606Z,27.3
2022-08-03T19:33:47.016Z,27.32
2022-08-03T19:38:39.506Z,27.31
2022-08-03T19:48:24.861Z,27.32
2022-08-03T19:53:17.692Z,27.32
2022-08-03T19:58:17.488Z,27.32
2022-08-03T20:03:02.852Z,27.33
2022-08-03T20:07:55.681Z,27.34
2022-08-03T20:12:48.127Z,27.33
2022-08-03T20:17:55.855Z,27.38
2022-08-03T20:22:33.394Z,27.34
2022-08-03T20:27:30.018Z,27.33
2022-08-03T20:32:19.173Z,27.35
2022-08-03T20:37:12.035Z,27.32
2022-08-03T20:42:04.007Z,27.27
2022-08-03T20:47:00.127Z,27.25
2022-08-03T20:51:49.296Z,27.21
2022-08-03T20:56:41.467Z,27.19
2022-08-03T21:01:36.076Z,27.16
2022-08-03T21:06:27.575Z,27.21
2022-08-03T21:11:19.264Z,27.21
2022-08-03T21:13:06.479Z,27.32
2022-08-03T21:16:14.832Z,27.15
2022-08-03T21:21:04.984Z,27.14
2022-08-03T21:25:57.453Z,27.02
2022-08-03T21:30:50.177Z,27.05
2022-08-03T21:35:42.849Z,27.1
2022-08-03T21:40:35.234Z,27.02
2022-08-03T21:45:27.647Z,27.01
2022-08-03T21:50:20.629Z,27.02
2022-08-03T21:55:18.711Z,26.95
2022-08-03T22:04:58.457Z,26.92
2022-08-03T22:09:52.104Z,26.89
2022-08-03T22:14:44.834Z,26.94
2022-08-03T22:19:37.496Z,26.93
2022-08-03T22:24:30.031Z,26.92
2022-08-03T22:29:22.807Z,26.87
2022-08-03T22:34:14.882Z,26.85
2022-08-03T22:39:07.750Z,26.82
2022-08-03T22:44:00.422Z,26.86
2022-08-03T22:48:52.859Z,26.84
2022-08-03T22:53:45.409Z,26.85
2022-08-03T22:58:38.206Z,26.81
2022-08-03T23:03:58.582Z,26.8
